createdAt,value
2023-05-04T00:02:01.124Z,58.21
2023-05-04T00:04:31.203Z,58.46
2023-05-04T00:07:06.709Z,58.12
2023-05-04T00:09:39.227Z,58.29
2023-05-04T00:12:09.770Z,58.67
2023-05-04T00:14:43.944Z,58.74
2023-05-04T00:17:14.023Z,58.56
2023-05-04T00:19:46.146Z,58.92
2023-05-04T00:22:21.874Z,58.94
2023-05-04T00:24:52.711Z,59.45
2023-05-04T00:27:26.956Z,59.67
2023-05-04T00:29:58.730Z,59.92
2023-05-04T00:32:28.936Z,60.18
2023-05-04T00:35:03.339Z,60.66
2023-05-04T00:37:36.640Z,60.66
2023-05-04T00:40:07.543Z,60.45
2023-05-04T00:42:37.938Z,60.55
2023-05-04T00:45:10.055Z,60.59
2023-05-04T00:47:40.276Z,60.14
2023-05-04T00:50:12.078Z,59.89
2023-05-04T00:52:46.764Z,59.72
2023-05-04T00:55:20.914Z,59.71
2023-05-04T00:57:52.047Z,59.91
2023-05-04T01:00:22.606Z,59.90
2023-05-04T01:02:53.621Z,59.81
2023-05-04T01:05:27.209Z,59.67
2023-05-04T01:08:05.470Z,59.49
2023-05-04T01:10:46.884Z,59.63
2023-05-04T01:13:19.186Z,59.49
2023-05-04T01:15:49.673Z,59.62
2023-05-04T01:18:23.690Z,59.53
2023-05-04T01:20:53.784Z,60.11
2023-05-04T01:23:26.855Z,60.03
2023-05-04T01:26:03.965Z,59.95
2023-05-04T01:28:41.865Z,60.18
2023-05-04T01:31:17.230Z,59.89
2023-05-04T01:33:50.508Z,60.06
2023-05-04T01:36:21.705Z,60.37
2023-05-04T01:39:01.501Z,60.29
2023-05-04T01:41:31.818Z,60.15
2023-05-04T01:44:01.920Z,60.18
2023-05-04T01:46:32.400Z,59.87
2023-05-04T01:49:15.500Z,59.82
2023-05-04T01:51:46.971Z,59.86
2023-05-04T01:54:20.398Z,59.35
2023-05-04T01:56:52.717Z,59.77
2023-05-04T01:59:22.786Z,59.63
2023-05-04T02:02:00.517Z,60.09
2023-05-04T02:04:30.857Z,59.97
2023-05-04T02:07:01.103Z,60.13
2023-05-04T02:09:35.601Z,60.20
2023-05-04T02:12:06.111Z,60.43
2023-05-04T02:14:36.213Z,60.20
2023-05-04T02:17:12.670Z,60.97
2023-05-04T02:19:42.740Z,61.07
2023-05-04T02:22:12.865Z,60.89
2023-05-04T02:24:45.694Z,60.75
2023-05-04T02:27:15.855Z,60.49
2023-05-04T02:29:46.216Z,60.67
2023-05-04T02:32:16.503Z,61.08
2023-05-04T02:34:46.849Z,60.78
2023-05-04T02:37:16.825Z,60.85
2023-05-04T02:39:49.445Z,61.12
2023-05-04T02:42:19.733Z,60.78
2023-05-04T02:44:50.136Z,60.89
2023-05-04T02:47:20.682Z,60.82
2023-05-04T02:49:52.149Z,60.91
2023-05-04T02:52:22.427Z,61.00
2023-05-04T02:54:55.300Z,60.59
2023-05-04T02:57:26.780Z,60.56
2023-05-04T02:59:56.943Z,60.52
2023-05-04T03:02:28.845Z,60.49
2023-05-04T03:04:58.919Z,60.89
2023-05-04T03:07:31.096Z,61.16
2023-05-04T03:10:04.917Z,60.90
2023-05-04T03:12:35.149Z,60.98
2023-05-04T03:15:07.318Z,60.70
2023-05-04T03:17:37.524Z,61.15
2023-05-04T03:20:10.029Z,60.76
2023-05-04T03:22:44.455Z,61.04
2023-05-04T03:25:17.118Z,60.76
2023-05-04T03:27:57.534Z,60.79
2023-05-04T03:30:27.717Z,60.65
2023-05-04T03:33:03.116Z,60.83
2023-05-04T03:35:33.389Z,60.98
2023-05-04T03:38:10.714Z,60.79
2023-05-04T03:40:43.700Z,60.85
2023-05-04T03:43:17.572Z,61.33
2023-05-04T03:45:47.814Z,61.09
2023-05-04T03:48:21.828Z,60.79
2023-05-04T03:50:54.273Z,60.83
2023-05-04T03:53:24.476Z,60.73
2023-05-04T03:55:57.340Z,60.80
2023-05-04T03:58:34.873Z,60.86
2023-05-04T04:01:07.540Z,61.04
2023-05-04T04:03:41.194Z,61.19
2023-05-04T04:06:13.572Z,61.20
2023-05-04T04:08:44.743Z,60.75
2023-05-04T04:11:17.475Z,60.44
2023-05-04T04:13:47.814Z,60.75
2023-05-04T04:16:20.812Z,60.48
2023-05-04T04:18:51.790Z,60.52
2023-05-04T04:21:21.918Z,60.41
2023-05-04T04:23:53.861Z,60.35
2023-05-04T04:26:30.753Z,60.04
2023-05-04T04:29:00.847Z,60.10
2023-05-04T04:31:40.481Z,60.06
2023-05-04T04:34:14.869Z,60.31
2023-05-04T04:36:45.266Z,63.02
2023-05-04T04:39:16.861Z,60.33
2023-05-04T04:41:49.607Z,59.90
2023-05-04T04:44:20.127Z,59.96
2023-05-04T04:46:50.138Z,59.77
2023-05-04T04:49:20.646Z,59.55
2023-05-04T04:51:53.282Z,59.44
2023-05-04T04:54:23.285Z,59.63
2023-05-04T04:56:55.906Z,59.63
2023-05-04T04:59:28.501Z,59.35
2023-05-04T05:01:58.781Z,59.69
2023-05-04T05:04:29.090Z,59.46
2023-05-04T05:06:59.899Z,59.29
2023-05-04T05:09:30.066Z,59.22
2023-05-04T05:12:02.861Z,59.14
2023-05-04T05:14:33.150Z,58.60
2023-05-04T05:17:15.842Z,56.97
2023-05-04T05:19:47.037Z,55.53
2023-05-04T05:22:17.340Z,54.90
2023-05-04T05:24:51.126Z,54.63
2023-05-04T05:27:24.500Z,54.37
2023-05-04T05:29:54.606Z,54.03
2023-05-04T05:32:24.872Z,54.02
2023-05-04T05:34:55.121Z,53.33
2023-05-04T05:37:26.065Z,52.64
2023-05-04T05:39:56.284Z,52.13
2023-05-04T05:42:28.928Z,51.43
2023-05-04T05:44:59.251Z,51.27
2023-05-04T05:47:29.625Z,50.74
2023-05-04T05:49:59.988Z,50.21
2023-05-04T05:52:30.361Z,49.25
2023-05-04T05:55:02.461Z,48.40
2023-05-04T05:57:35.446Z,48.19
2023-05-04T06:00:06.434Z,47.98
2023-05-04T06:02:44.090Z,48.05
2023-05-04T06:05:14.171Z,47.66
2023-05-04T06:07:44.153Z,48.48
2023-05-04T06:10:16.763Z,48.98
2023-05-04T06:12:49.363Z,49.28
2023-05-04T06:15:20.178Z,49.57
2023-05-04T06:17:50.468Z,50.27
2023-05-04T06:20:21.025Z,50.61
2023-05-04T06:22:51.489Z,51.24
2023-05-04T06:25:22.340Z,51.47
2023-05-04T06:27:55.292Z,51.92
2023-05-04T06:30:25.558Z,52.45
2023-05-04T06:32:55.671Z,52.84
2023-05-04T06:35:26.068Z,53.09
2023-05-04T06:37:56.612Z,53.39
2023-05-04T06:40:28.002Z,53.57
2023-05-04T06:43:00.896Z,53.33
2023-05-04T06:45:31.432Z,53.32
2023-05-04T06:48:01.593Z,53.06
2023-05-04T06:50:33.401Z,53.00
2023-05-04T06:53:09.230Z,53.07
2023-05-04T06:55:39.883Z,53.24
2023-05-04T06:58:12.917Z,52.98
2023-05-04T07:00:47.716Z,53.40
2023-05-04T07:03:18.114Z,53.87
2023-05-04T07:05:50.898Z,54.08
2023-05-04T07:08:23.366Z,54.46
2023-05-04T07:10:53.617Z,54.62
2023-05-04T07:13:26.688Z,54.93
2023-05-04T07:15:58.951Z,54.98
2023-05-04T07:18:29.208Z,54.85
2023-05-04T07:21:16.081Z,54.44
2023-05-04T07:23:49.707Z,54.42
2023-05-04T07:26:19.761Z,54.58
2023-05-04T07:28:52.782Z,55.18
2023-05-04T07:31:23.354Z,55.08
2023-05-04T07:33:54.245Z,55.34
2023-05-04T07:36:26.769Z,55.10
2023-05-04T07:38:57.610Z,55.13
2023-05-04T07:41:27.856Z,55.11
2023-05-04T07:44:00.569Z,55.04
2023-05-04T07:46:31.220Z,54.68
2023-05-04T07:49:01.594Z,54.26
2023-05-04T07:51:31.718Z,54.16
2023-05-04T07:54:01.963Z,54.17
2023-05-04T07:56:32.151Z,53.87
2023-05-04T07:59:05.025Z,53.80
2023-05-04T08:01:35.159Z,54.04
2023-05-04T08:04:05.311Z,54.02
2023-05-04T08:06:39.490Z,54.07
2023-05-04T08:09:09.579Z,54.08
2023-05-04T08:11:39.756Z,54.15
2023-05-04T08:14:12.481Z,53.95
2023-05-04T08:16:43.089Z,54.05
2023-05-04T08:19:13.153Z,53.98
2023-05-04T08:21:43.692Z,53.61
2023-05-04T08:24:14.000Z,53.71
2023-05-04T08:26:52.577Z,53.85
2023-05-04T08:29:32.872Z,53.49
2023-05-04T08:32:03.656Z,53.45
2023-05-04T08:34:34.004Z,53.49
2023-05-04T08:37:06.839Z,53.78
2023-05-04T08:39:39.432Z,53.67
2023-05-04T08:42:17.349Z,53.69
2023-05-04T08:44:50.050Z,53.30
2023-05-04T08:47:20.251Z,53.16
2023-05-04T08:49:55.553Z,53.15
2023-05-04T08:52:27.343Z,52.95
2023-05-04T08:54:58.821Z,52.88
2023-05-04T08:57:35.703Z,52.67
2023-05-04T09:00:12.201Z,52.30
2023-05-04T09:02:42.974Z,52.50
2023-05-04T09:05:14.485Z,52.65
2023-05-04T09:07:44.651Z,52.26
2023-05-04T09:10:15.048Z,52.10
2023-05-04T09:12:45.146Z,52.14
2023-05-04T09:15:22.131Z,51.97
2023-05-04T09:18:01.357Z,52.07
2023-05-04T09:20:32.739Z,52.06
2023-05-04T09:23:26.397Z,51.13
2023-05-04T09:25:58.757Z,51.89
2023-05-04T09:28:38.838Z,51.87
2023-05-04T09:31:12.112Z,51.83
2023-05-04T09:33:44.930Z,51.43
2023-05-04T09:36:17.895Z,51.50
2023-05-04T09:38:50.426Z,51.47
2023-05-04T09:41:21.124Z,51.08
2023-05-04T09:43:52.024Z,51.21
2023-05-04T09:46:25.944Z,51.39
2023-05-04T09:48:57.180Z,51.61
2023-05-04T09:51:30.321Z,51.72
2023-05-04T09:54:07.396Z,51.46
2023-05-04T09:56:49.266Z,50.99
2023-05-04T09:59:22.860Z,51.45
2023-05-04T10:01:58.691Z,51.45
2023-05-04T10:04:31.067Z,51.25
2023-05-04T10:07:03.384Z,51.37
2023-05-04T10:09:34.627Z,50.98
2023-05-04T10:12:06.754Z,50.49
2023-05-04T10:14:38.306Z,50.60
2023-05-04T10:17:28.555Z,50.18
2023-05-04T10:20:21.079Z,49.71
2023-05-04T10:23:24.174Z,49.06
2023-05-04T10:26:20.922Z,49.14
2023-05-04T10:29:07.064Z,49.19
2023-05-04T10:31:42.360Z,48.79
2023-05-04T10:34:27.360Z,47.42
2023-05-04T10:36:58.048Z,49.29
2023-05-04T10:39:29.709Z,50.04
2023-05-04T10:42:02.350Z,49.41
2023-05-04T10:44:33.852Z,49.95
2023-05-04T10:47:06.894Z,49.63
2023-05-04T10:49:39.508Z,49.71
2023-05-04T10:52:16.499Z,49.54
2023-05-04T10:54:47.525Z,49.80
2023-05-04T10:57:17.748Z,49.81
2023-05-04T10:59:58.984Z,49.88
2023-05-04T11:02:32.569Z,49.44
2023-05-04T11:05:09.557Z,50.00
2023-05-04T11:07:40.885Z,50.09
2023-05-04T11:10:24.592Z,50.29
2023-05-04T11:13:05.568Z,49.86
2023-05-04T11:15:47.046Z,50.13
2023-05-04T11:18:19.053Z,49.96
2023-05-04T11:20:56.291Z,49.73
2023-05-04T11:23:32.826Z,50.17
2023-05-04T11:26:12.601Z,49.79
2023-05-04T11:28:43.241Z,50.03
2023-05-04T11:31:17.252Z,49.82
2023-05-04T11:33:48.359Z,45.70
2023-05-04T11:36:21.401Z,49.44
2023-05-04T11:38:52.719Z,48.73
2023-05-04T11:41:29.922Z,48.83
2023-05-04T11:44:04.566Z,49.37
2023-05-04T11:46:35.946Z,44.76
2023-05-04T11:49:12.414Z,49.17
2023-05-04T11:51:45.357Z,48.83
2023-05-04T11:54:25.251Z,47.51
2023-05-04T11:56:56.535Z,49.00
2023-05-04T11:59:26.673Z,49.46
2023-05-04T12:01:56.975Z,49.91
2023-05-04T12:04:33.444Z,49.52
2023-05-04T12:07:09.668Z,49.51
2023-05-04T12:10:10.291Z,49.51
2023-05-04T12:12:41.018Z,49.47
2023-05-04T12:15:13.623Z,49.71
2023-05-04T12:17:44.339Z,49.53
2023-05-04T12:20:26.652Z,49.25
2023-05-04T12:22:59.845Z,49.68
2023-05-04T12:25:29.983Z,49.27
2023-05-04T12:28:00.675Z,48.66
2023-05-04T12:30:30.883Z,48.80
2023-05-04T12:33:05.786Z,48.74
2023-05-04T12:35:37.175Z,49.32
2023-05-04T12:38:09.926Z,49.14
2023-05-04T12:40:44.304Z,49.51
2023-05-04T12:43:20.965Z,49.75
2023-05-04T12:45:51.198Z,49.51
2023-05-04T12:48:21.990Z,49.41
2023-05-04T12:50:53.023Z,49.90
2023-05-04T12:53:28.088Z,49.65
2023-05-04T12:56:00.192Z,49.59
2023-05-04T12:58:31.302Z,49.94
2023-05-04T13:01:04.590Z,49.82
2023-05-04T13:03:38.338Z,49.68
2023-05-04T13:06:08.640Z,44.10
2023-05-04T13:08:41.739Z,49.31
2023-05-04T13:11:14.750Z,49.33
2023-05-04T13:13:49.436Z,49.25
2023-05-04T13:16:20.214Z,49.25
2023-05-04T13:18:50.223Z,49.46
2023-05-04T13:21:22.129Z,49.10
2023-05-04T13:23:57.724Z,48.87
2023-05-04T13:26:29.896Z,49.28
2023-05-04T13:28:59.906Z,48.36
2023-05-04T13:31:30.026Z,48.34
2023-05-04T13:34:00.297Z,48.34
2023-05-04T13:36:34.474Z,48.23
2023-05-04T13:39:07.315Z,48.12
2023-05-04T13:41:38.363Z,48.31
2023-05-04T13:44:09.274Z,47.93
2023-05-04T13:46:39.744Z,48.47
2023-05-04T13:49:16.308Z,48.19
2023-05-04T13:51:47.249Z,48.47
2023-05-04T13:54:21.267Z,48.38
2023-05-04T13:56:52.332Z,48.57
2023-05-04T13:59:28.880Z,48.16
2023-05-04T14:01:59.471Z,48.33
2023-05-04T14:04:39.766Z,47.93
2023-05-04T14:07:10.762Z,47.66
2023-05-04T14:09:43.831Z,47.98
2023-05-04T14:12:18.475Z,47.79
2023-05-04T14:14:48.619Z,48.20
2023-05-04T14:17:20.537Z,48.46
2023-05-04T14:19:52.175Z,48.42
2023-05-04T14:22:23.257Z,48.32
2023-05-04T14:25:02.515Z,47.82
2023-05-04T14:27:34.638Z,48.37
2023-05-04T14:30:05.280Z,48.47
2023-05-04T14:32:35.758Z,48.25
2023-05-04T14:35:09.076Z,48.35
2023-05-04T14:37:41.165Z,48.14
2023-05-04T14:40:24.828Z,45.24
2023-05-04T14:42:54.850Z,48.12
2023-05-04T14:45:27.554Z,47.66
2023-05-04T14:47:58.014Z,48.00
2023-05-04T14:50:31.103Z,47.81
2023-05-04T14:53:01.146Z,47.95
2023-05-04T14:55:41.728Z,47.90
2023-05-04T14:58:22.152Z,48.05
2023-05-04T15:01:02.558Z,47.61
2023-05-04T15:03:32.815Z,47.72
2023-05-04T15:06:05.543Z,47.90
2023-05-04T15:08:36.200Z,47.97
2023-05-04T15:11:10.087Z,47.80
2023-05-04T15:13:40.197Z,47.62
2023-05-04T15:16:10.310Z,48.07
2023-05-04T15:18:42.264Z,47.98
2023-05-04T15:21:14.314Z,48.26
2023-05-04T15:23:44.330Z,48.26
2023-05-04T15:26:17.324Z,48.30
2023-05-04T15:28:47.451Z,48.57
2023-05-04T15:31:20.709Z,48.68
2023-05-04T15:33:51.405Z,48.90
2023-05-04T15:36:24.571Z,49.33
2023-05-04T15:38:54.536Z,49.04
2023-05-04T15:41:28.942Z,48.74
2023-05-04T15:44:03.246Z,49.01
2023-05-04T15:46:36.858Z,49.15
2023-05-04T15:49:09.542Z,49.19
2023-05-04T15:51:39.575Z,49.30
2023-05-04T15:54:13.353Z,48.71
2023-05-04T15:56:46.312Z,48.73
2023-05-04T15:59:30.110Z,48.55
2023-05-04T16:02:00.288Z,49.00
2023-05-04T16:04:31.021Z,48.59
2023-05-04T16:07:01.179Z,49.33
2023-05-04T16:09:31.573Z,48.89
2023-05-04T16:12:05.369Z,49.25
2023-05-04T16:14:36.331Z,49.07
2023-05-04T16:17:07.558Z,49.34
2023-05-04T16:19:39.071Z,48.92
2023-05-04T16:22:09.427Z,48.59
2023-05-04T16:24:39.580Z,48.82
2023-05-04T16:27:12.316Z,48.74
2023-05-04T16:29:46.715Z,49.41
2023-05-04T16:32:16.997Z,45.49
2023-05-04T16:34:53.140Z,49.00
2023-05-04T16:37:23.400Z,48.96
2023-05-04T16:39:53.711Z,49.43
2023-05-04T16:42:26.537Z,49.33
2023-05-04T16:45:06.280Z,49.05
2023-05-04T16:47:36.667Z,49.55
2023-05-04T16:50:08.845Z,49.18
2023-05-04T16:52:40.201Z,49.51
2023-05-04T16:55:13.087Z,49.38
2023-05-04T16:57:46.199Z,49.49
2023-05-04T17:00:24.362Z,49.56
2023-05-04T17:02:55.917Z,49.67
2023-05-04T17:05:28.453Z,49.77
2023-05-04T17:08:00.429Z,49.71
2023-05-04T17:10:33.148Z,49.83
2023-05-04T17:13:08.434Z,50.22
2023-05-04T17:15:39.545Z,50.29
2023-05-04T17:18:09.794Z,50.14
2023-05-04T17:20:40.023Z,50.28
2023-05-04T17:23:10.419Z,50.18
2023-05-04T17:25:43.464Z,50.14
2023-05-04T17:28:18.363Z,50.39
2023-05-04T17:31:23.992Z,50.19
2023-05-04T17:33:52.410Z,50.40
2023-05-04T17:36:23.370Z,50.50
2023-05-04T17:38:53.459Z,50.35
2023-05-04T17:41:25.024Z,50.42
2023-05-04T17:43:57.939Z,50.14
2023-05-04T17:46:32.654Z,50.49
2023-05-04T17:49:03.484Z,50.29
2023-05-04T17:51:33.604Z,50.37
2023-05-04T17:54:11.016Z,50.62
2023-05-04T17:56:43.245Z,50.66
2023-05-04T17:59:23.126Z,50.65
2023-05-04T18:01:53.551Z,50.71
2023-05-04T18:04:23.573Z,50.96
2023-05-04T18:06:54.484Z,50.96
2023-05-04T18:09:30.820Z,50.93
2023-05-04T18:12:03.569Z,51.33
2023-05-04T18:14:36.204Z,51.20
2023-05-04T18:17:08.289Z,51.27
2023-05-04T18:19:40.478Z,51.46
2023-05-04T18:22:12.678Z,51.54
2023-05-04T18:24:43.334Z,51.65
2023-05-04T18:27:13.673Z,51.91
2023-05-04T18:29:50.154Z,51.52
2023-05-04T18:32:20.733Z,51.77
2023-05-04T18:34:54.990Z,52.01
2023-05-04T18:37:25.451Z,52.09
2023-05-04T18:39:55.666Z,52.03
2023-05-04T18:42:27.600Z,52.10
2023-05-04T18:45:01.141Z,52.17
2023-05-04T18:47:33.496Z,52.31
2023-05-04T18:50:07.697Z,52.40
2023-05-04T18:52:40.330Z,52.46
2023-05-04T18:55:12.182Z,52.51
2023-05-04T18:57:42.378Z,52.72
2023-05-04T19:00:16.836Z,52.59
2023-05-04T19:02:46.957Z,52.70
2023-05-04T19:05:17.306Z,52.92
2023-05-04T19:07:48.508Z,52.76
2023-05-04T19:10:18.961Z,52.85
2023-05-04T19:12:49.174Z,52.88
2023-05-04T19:15:23.340Z,52.95
2023-05-04T19:17:54.284Z,53.05
2023-05-04T19:20:24.349Z,53.13
2023-05-04T19:22:54.639Z,53.21
2023-05-04T19:28:08.123Z,53.22
2023-05-04T19:30:41.961Z,53.25
2023-05-04T19:33:19.811Z,53.22
2023-05-04T19:35:50.009Z,53.36
2023-05-04T19:38:20.095Z,53.17
2023-05-04T19:40:50.217Z,53.25
2023-05-04T19:43:22.616Z,53.21
2023-05-04T19:45:57.360Z,53.16
2023-05-04T19:48:29.742Z,53.12
2023-05-04T19:51:00.051Z,53.01
2023-05-04T19:53:31.299Z,53.05
2023-05-04T19:56:01.477Z,53.04
2023-05-04T19:58:32.234Z,53.01
2023-05-04T20:01:06.028Z,52.95
2023-05-04T20:03:36.141Z,53.06
2023-05-04T20:06:09.353Z,53.05
2023-05-04T20:08:39.575Z,52.98
2023-05-04T20:11:09.907Z,52.97
2023-05-04T20:13:40.137Z,52.99
2023-05-04T20:16:13.272Z,53.09
2023-05-04T20:18:43.427Z,53.12
2023-05-04T20:21:13.518Z,53.03
2023-05-04T20:23:45.818Z,53.15
2023-05-04T20:26:16.662Z,53.13
2023-05-04T20:28:49.015Z,53.11
2023-05-04T20:31:21.996Z,53.24
2023-05-04T20:33:54.694Z,53.08
2023-05-04T20:36:27.512Z,53.09
2023-05-04T20:38:58.533Z,53.11
2023-05-04T20:41:28.903Z,53.41
2023-05-04T20:43:59.455Z,53.29
2023-05-04T20:46:32.257Z,53.33
2023-05-04T20:49:03.076Z,53.53
2023-05-04T20:51:33.700Z,53.41
2023-05-04T20:54:03.891Z,53.40
2023-05-04T20:56:33.968Z,53.47
2023-05-04T20:59:04.064Z,53.61
2023-05-04T21:01:37.450Z,53.62
2023-05-04T21:04:08.528Z,53.61
2023-05-04T21:06:40.220Z,53.48
2023-05-04T21:09:12.910Z,53.40
2023-05-04T21:11:43.001Z,53.47
2023-05-04T21:14:13.815Z,53.64
2023-05-04T21:16:46.642Z,53.82
2023-05-04T21:19:16.830Z,53.55
2023-05-04T21:21:47.183Z,53.66
2023-05-04T21:24:17.663Z,53.66
2023-05-04T21:26:48.666Z,53.58
2023-05-04T21:29:18.750Z,53.62
2023-05-04T21:31:51.670Z,53.75
2023-05-04T21:34:21.813Z,53.69
2023-05-04T21:36:51.803Z,53.79
2023-05-04T21:39:23.224Z,53.87
2023-05-04T21:41:53.397Z,53.89
2023-05-04T21:44:24.930Z,53.71
2023-05-04T21:46:58.187Z,53.67
2023-05-04T21:49:28.205Z,53.74
2023-05-04T21:51:58.313Z,53.96
2023-05-04T21:54:28.499Z,54.00
2023-05-04T21:57:04.291Z,53.94
2023-05-04T21:59:34.692Z,53.97
2023-05-04T22:02:09.436Z,54.05
2023-05-04T22:04:40.074Z,54.15
2023-05-04T22:07:10.137Z,54.04
2023-05-04T22:09:40.380Z,53.99
2023-05-04T22:12:10.789Z,54.16
2023-05-04T22:14:42.486Z,54.04
2023-05-04T22:17:16.078Z,54.03
2023-05-04T22:19:52.291Z,54.13
2023-05-04T22:22:22.962Z,54.11
2023-05-04T22:24:53.285Z,53.99
2023-05-04T22:27:23.473Z,54.13
2023-05-04T22:29:55.875Z,54.30
2023-05-04T22:32:28.549Z,54.27
2023-05-04T22:35:00.208Z,54.51
2023-05-04T22:37:32.559Z,54.39
2023-05-04T22:40:02.941Z,54.40
2023-05-04T22:42:34.080Z,54.57
2023-05-04T22:45:04.299Z,54.53
2023-05-04T22:47:36.978Z,54.63
2023-05-04T22:50:08.131Z,54.56
2023-05-04T22:52:40.864Z,54.59
2023-05-04T22:55:12.238Z,54.80
2023-05-04T22:57:42.472Z,54.88
2023-05-04T23:00:16.620Z,54.65
2023-05-04T23:02:49.096Z,55.59
2023-05-04T23:05:19.476Z,54.77
2023-05-04T23:07:49.552Z,54.77
2023-05-04T23:10:19.838Z,54.83
2023-05-04T23:12:50.115Z,54.86
2023-05-04T23:15:20.959Z,54.83
2023-05-04T23:17:53.789Z,54.76
2023-05-04T23:20:24.254Z,54.87
2023-05-04T23:22:54.463Z,54.77
2023-05-04T23:25:24.669Z,54.86
2023-05-04T23:28:12.494Z,54.88
2023-05-04T23:30:42.689Z,54.75
2023-05-04T23:33:16.386Z,55.01
2023-05-04T23:35:46.555Z,54.89
2023-05-04T23:38:16.528Z,54.79
2023-05-04T23:40:46.883Z,54.94
2023-05-04T23:43:17.053Z,55.09
2023-05-04T23:45:48.523Z,55.06
2023-05-04T23:48:28.882Z,54.93
2023-05-04T23:51:04.234Z,55.09
2023-05-04T23:53:39.390Z,54.92
2023-05-04T23:56:09.942Z,55.11
2023-05-04T23:58:39.858Z,55.38
